Time;durP1;ratioP1;P1;durP2;ratioP2;P2;SDS_P1;SDS_P2;PMS_P1;PMS_P2;Temp;Humidity;BMP_temperature;BMP_pressure;BME280_temperature;BME280_humidity;BME280_pressure;Samples;Min_cycle;Max_cycle;Signal;HPM_P1;HPM_P2
2022/05/04 00:00:14;;;;;;;51.13;31.52;;;;;;;11.78;100.00;99371.22;4925575;29;20032;-83
2022/05/04 00:02:42;;;;;;;50.63;30.15;;;;;;;11.90;100.00;99370.69;4906416;29;20036;-84
2022/05/04 00:05:08;;;;;;;51.78;30.48;;;;;;;11.97;100.00;99374.16;4923607;29;20158;-84
2022/05/04 00:07:34;;;;;;;47.70;29.52;;;;;;;11.95;100.00;99368.28;4918314;29;20032;-83
2022/05/04 00:10:00;;;;;;;46.17;29.50;;;;;;;11.97;100.00;99363.63;4926188;29;20111;-83
2022/05/04 00:12:30;;;;;;;48.40;30.25;;;;;;;11.98;100.00;99362.63;4924434;29;20044;-83
2022/05/04 00:14:55;;;;;;;46.50;29.58;;;;;;;11.99;100.00;99357.19;4927270;29;20035;-83
2022/05/04 00:17:21;;;;;;;51.38;30.95;;;;;;;11.99;100.00;99351.94;4923820;29;20099;-83
2022/05/04 00:19:47;;;;;;;46.45;29.83;;;;;;;12.10;100.00;99368.22;4925280;29;20398;-85
2022/05/04 00:22:20;;;;;;;52.45;30.08;;;;;;;12.14;100.00;99354.44;4908894;29;20171;-84
2022/05/04 00:24:47;;;;;;;46.28;29.80;;;;;;;12.17;100.00;99347.97;4907204;29;20078;-84
2022/05/04 00:27:15;;;;;;;50.63;31.58;;;;;;;12.03;100.00;99344.50;4922128;29;20394;-85
2022/05/04 00:29:44;;;;;;;52.00;30.80;;;;;;;12.07;100.00;99347.53;4910758;29;20036;-84
2022/05/04 00:32:11;;;;;;;48.95;30.27;;;;;;;12.11;100.00;99335.63;4917772;29;20117;-84
2022/05/04 00:34:37;;;;;;;51.45;30.85;;;;;;;12.08;100.00;99334.19;4905310;29;20070;-84
2022/05/04 00:37:03;;;;;;;47.78;30.77;;;;;;;12.22;100.00;99344.75;4924328;29;20048;-84
2022/05/04 00:39:29;;;;;;;54.17;30.58;;;;;;;12.19;100.00;99335.44;4927166;29;20111;-85
2022/05/04 00:42:14;;;;;;;53.30;31.38;;;;;;;12.17;100.00;99331.38;4920918;29;20031;-84
2022/05/04 00:44:43;;;;;;;52.45;32.00;;;;;;;12.17;100.00;99326.94;4925747;29;20087;-84
2022/05/04 00:47:09;;;;;;;52.63;31.52;;;;;;;12.19;100.00;99339.91;4922806;29;20500;-84
2022/05/04 00:49:35;;;;;;;54.05;33.72;;;;;;;12.16;100.00;99335.84;4925116;29;20063;-85
2022/05/04 00:52:02;;;;;;;52.13;32.03;;;;;;;12.19;100.00;99342.53;4927144;29;20079;-84
2022/05/04 00:54:29;;;;;;;54.53;30.95;;;;;;;12.25;100.00;99333.84;4919226;29;20082;-85
2022/05/04 00:56:55;;;;;;;59.83;33.72;;;;;;;12.22;100.00;99328.97;4917008;29;20126;-84
2022/05/04 00:59:21;;;;;;;56.50;33.97;;;;;;;12.25;100.00;99331.19;4922958;29;20035;-86
2022/05/04 01:01:47;;;;;;;53.45;33.30;;;;;;;12.28;100.00;99322.91;4924060;29;20031;-85
2022/05/04 01:04:14;;;;;;;57.78;35.05;;;;;;;12.11;100.00;99323.25;4926908;29;20028;-85
2022/05/04 01:06:39;;;;;;;60.78;35.55;;;;;;;12.13;100.00;99320.44;4923613;29;20032;-84
2022/05/04 01:09:05;;;;;;;59.45;36.05;;;;;;;12.14;100.00;99317.59;4923273;29;20036;-83
2022/05/04 01:11:31;;;;;;;60.50;33.90;;;;;;;12.10;100.00;99297.94;4922985;29;20101;-85
2022/05/04 01:14:23;;;;;;;58.38;35.33;;;;;;;12.24;100.00;99311.16;4922519;29;20375;-85
2022/05/04 01:16:48;;;;;;;58.97;35.28;;;;;;;12.31;100.00;99311.97;4918405;29;20047;-85
2022/05/04 01:19:15;;;;;;;60.78;35.80;;;;;;;12.30;100.00;99304.28;4922223;29;20035;-85
2022/05/04 01:21:41;;;;;;;63.38;37.40;;;;;;;12.36;100.00;99309.56;4927738;29;20039;-85
2022/05/04 01:24:09;;;;;;;61.25;35.72;;;;;;;12.34;100.00;99298.41;4924160;29;20491;-84
2022/05/04 01:26:34;;;;;;;61.28;35.42;;;;;;;12.41;100.00;99311.59;4924738;29;20050;-84
2022/05/04 01:29:01;;;;;;;63.50;36.47;;;;;;;12.46;100.00;99309.16;4918138;29;20031;-84
2022/05/04 01:31:26;;;;;;;66.95;37.45;;;;;;;12.40;100.00;99295.00;4923541;29;20024;-84
2022/05/04 01:33:52;;;;;;;67.63;39.10;;;;;;;12.37;100.00;99290.13;4921000;29;20486;-84
2022/05/04 01:36:18;;;;;;;76.32;42.28;;;;;;;12.29;100.00;99287.69;4924811;29;20028;-85
2022/05/04 01:38:44;;;;;;;87.00;45.67;;;;;;;12.36;100.00;99287.69;4929377;29;20032;-84
2022/05/04 01:42:02;;;;;;;74.90;43.25;;;;;;;12.27;100.00;99279.97;4927962;29;20074;-85
2022/05/04 01:43:55;;;;;;;77.72;43.55;;;;;;;12.20;100.00;99288.88;4923135;29;20367;-84
2022/05/04 01:46:21;;;;;;;79.05;42.72;;;;;;;12.18;100.00;99269.81;4927762;29;20107;-86
2022/05/04 01:48:48;;;;;;;77.63;43.75;;;;;;;12.37;100.00;99284.84;4926303;29;20139;-85
2022/05/04 01:51:16;;;;;;;72.70;42.17;;;;;;;12.27;100.00;99279.19;4927260;29;20533;-86
2022/05/04 01:53:44;;;;;;;75.70;41.95;;;;;;;12.25;100.00;99275.94;4922883;29;20036;-86
2022/05/04 01:56:11;;;;;;;67.93;39.58;;;;;;;12.34;100.00;99273.94;4925496;29;20078;-84
2022/05/04 01:58:37;;;;;;;76.20;44.10;;;;;;;12.27;100.00;99273.91;4926618;29;20028;-86
2022/05/04 02:01:02;;;;;;;66.32;40.55;;;;;;;12.43;100.00;99272.72;4925024;29;20024;-85
2022/05/04 02:03:29;;;;;;;78.82;41.78;;;;;;;12.22;100.00;99274.50;4921276;29;20047;-84
2022/05/04 02:05:55;;;;;;;67.10;40.80;;;;;;;12.36;100.00;99271.91;4925515;29;20145;-85
2022/05/04 02:08:21;;;;;;;68.35;38.38;;;;;;;12.48;100.00;99264.22;4927337;29;20059;-84
2022/05/04 02:10:46;;;;;;;68.05;39.80;;;;;;;12.55;100.00;99278.19;4930115;29;20393;-85
2022/05/04 02:13:12;;;;;;;71.38;41.08;;;;;;;12.48;100.00;99269.47;4925329;29;20050;-85
2022/05/04 02:15:38;;;;;;;69.22;40.38;;;;;;;12.47;100.00;99276.56;4927104;29;20035;-85
2022/05/04 02:18:04;;;;;;;61.70;37.30;;;;;;;12.52;100.00;99276.78;4928181;29;20032;-84
2022/05/04 02:20:29;;;;;;;73.03;39.70;;;;;;;12.47;100.00;99273.13;4927727;29;20505;-84
2022/05/04 02:22:55;;;;;;;64.88;38.45;;;;;;;12.49;100.00;99271.09;4927069;29;20028;-83
2022/05/04 02:25:20;;;;;;;68.68;39.08;;;;;;;12.45;100.00;99264.63;4925679;29;20035;-85
2022/05/04 02:27:46;;;;;;;61.20;38.30;;;;;;;12.49;100.00;99265.84;4928405;29;20563;-85
2022/05/04 02:30:13;;;;;;;70.85;38.38;;;;;;;12.32;100.00;99263.59;4927059;29;20044;-84
2022/05/04 02:32:39;;;;;;;58.78;34.05;;;;;;;11.90;100.00;99257.59;4927542;29;20036;-83
2022/05/04 02:37:55;;;;;;;58.75;35.17;;;;;;;12.16;100.00;99256.06;4928757;29;20039;-87
2022/05/04 02:40:22;;;;;;;68.05;38.05;;;;;;;12.05;100.00;99253.03;4911716;29;20050;-84
2022/05/04 02:42:47;;;;;;;62.28;35.03;;;;;;;12.08;100.00;99239.47;4924224;29;20055;-84
2022/05/04 02:45:14;;;;;;;65.60;37.65;;;;;;;12.24;100.00;99253.25;4927999;29;20067;-84
2022/05/04 02:47:40;;;;;;;52.75;31.02;;;;;;;12.22;100.00;99245.56;4926317;29;20046;-85
2022/05/04 02:50:07;;;;;;;54.13;31.48;;;;;;;12.34;100.00;99245.78;4927567;29;20095;-84
2022/05/04 02:52:33;;;;;;;59.05;33.08;;;;;;;12.27;100.00;99232.59;4924287;29;20146;-84
2022/05/04 02:54:58;;;;;;;55.78;31.48;;;;;;;12.19;100.00;99232.81;4926975;29;20110;-85
2022/05/04 02:57:24;;;;;;;61.40;34.70;;;;;;;12.29;100.00;99240.31;4922702;29;20039;-85
2022/05/04 02:59:50;;;;;;;62.97;34.90;;;;;;;12.21;100.00;99237.88;4927139;29;20035;-84
2022/05/04 03:02:27;;;;;;;61.67;36.00;;;;;;;12.12;100.00;99240.69;4927371;29;20032;-84
2022/05/04 03:04:58;;;;;;;58.95;33.60;;;;;;;12.30;100.00;99234.03;4927583;29;20032;-85
2022/05/04 03:07:24;;;;;;;55.03;32.20;;;;;;;12.45;100.00;99228.56;4924543;29;20495;-85
2022/05/04 03:09:51;;;;;;;54.45;31.38;;;;;;;12.41;100.00;99227.34;4928259;29;20040;-84
2022/05/04 03:12:17;;;;;;;56.33;31.90;;;;;;;12.38;100.00;99223.31;4908509;29;20496;-85
2022/05/04 03:14:43;;;;;;;51.80;30.77;;;;;;;12.40;100.00;99218.66;4924501;29;20040;-85
2022/05/04 03:17:09;;;;;;;56.53;32.40;;;;;;;12.28;100.00;99215.00;4931526;29;20115;-84
2022/05/04 03:19:35;;;;;;;54.10;30.90;;;;;;;12.39;100.00;99218.84;4926092;29;20039;-85
2022/05/04 03:22:01;;;;;;;52.55;30.65;;;;;;;12.40;100.00;99204.69;4919920;29;21330;-85
2022/05/04 03:24:26;;;;;;;54.60;33.08;;;;;;;12.45;100.00;99223.28;4923195;29;20035;-84
2022/05/04 03:26:52;;;;;;;53.30;31.45;;;;;;;12.47;100.00;99225.75;4927517;29;20039;-84
2022/05/04 03:29:18;;;;;;;55.72;32.55;;;;;;;12.45;100.00;99218.03;4924893;29;20043;-85
2022/05/04 03:31:44;;;;;;;59.60;32.78;;;;;;;12.42;100.00;99214.00;4907970;29;20031;-85
2022/05/04 03:34:10;;;;;;;56.25;32.28;;;;;;;12.42;100.00;99221.91;4926304;29;20500;-85
2022/05/04 03:36:35;;;;;;;62.90;36.03;;;;;;;12.24;100.00;99206.69;4925480;29;20098;-85
2022/05/04 03:39:02;;;;;;;58.22;32.97;;;;;;;12.36;100.00;99212.16;4928434;29;20529;-84
2022/05/04 03:41:28;;;;;;;54.55;31.70;;;;;;;12.35;100.00;99207.91;4922386;29;20028;-85
2022/05/04 03:43:54;;;;;;;57.90;31.63;;;;;;;12.34;100.00;99202.84;4906653;29;20043;-85
2022/05/04 03:46:22;;;;;;;50.15;28.90;;;;;;;12.38;100.00;99204.91;4924500;29;20040;-85
2022/05/04 03:48:53;;;;;;;44.13;26.52;;;;;;;12.42;100.00;99207.91;4923160;29;20048;-85
2022/05/04 03:51:20;;;;;;;48.10;27.75;;;;;;;12.35;100.00;99197.38;4924277;29;20371;-85
2022/05/04 03:53:50;;;;;;;44.30;26.05;;;;;;;12.25;100.00;99197.78;4925883;29;20114;-85
2022/05/04 03:56:16;;;;;;;42.15;25.45;;;;;;;12.22;100.00;99200.03;4923254;29;20035;-84
2022/05/04 03:58:43;;;;;;;40.20;23.85;;;;;;;11.92;100.00;99195.06;4926995;29;20390;-84
2022/05/04 04:01:09;;;;;;;43.42;25.00;;;;;;;11.93;100.00;99197.50;4929616;29;20028;-83
2022/05/04 04:03:34;;;;;;;41.47;23.52;;;;;;;11.70;100.00;99208.38;4924191;29;20039;-83
2022/05/04 04:06:01;;;;;;;42.30;24.40;;;;;;;11.64;100.00;99191.56;4922572;29;20390;-83
2022/05/04 04:08:27;;;;;;;41.33;23.23;;;;;;;11.46;100.00;99202.63;4925252;29;20036;-82
2022/05/04 04:10:53;;;;;;;39.17;22.83;;;;;;;11.34;100.00;99201.56;4925206;29;20175;-83
2022/05/04 04:13:19;;;;;;;42.85;24.40;;;;;;;11.49;100.00;99202.22;4925492;29;20394;-83
2022/05/04 04:15:45;;;;;;;40.53;24.30;;;;;;;11.37;100.00;99209.03;4927690;29;20032;-83
2022/05/04 04:18:11;;;;;;;45.65;24.63;;;;;;;11.41;100.00;99203.22;4923233;29;20036;-83
2022/05/04 04:23:22;;;;;;;37.30;22.08;;;;;;;11.58;100.00;99202.88;4921664;29;20124;-85
2022/05/04 04:25:48;;;;;;;41.30;23.15;;;;;;;11.76;100.00;99204.94;4927745;29;20537;-84
2022/05/04 04:28:13;;;;;;;43.92;24.38;;;;;;;11.57;100.00;99181.03;4923305;29;20028;-84
2022/05/04 04:30:40;;;;;;;37.83;23.20;;;;;;;11.75;100.00;99194.63;4925866;29;20028;-83
2022/05/04 04:33:06;;;;;;;37.92;24.17;;;;;;;11.62;100.00;99190.94;4923674;29;20088;-84
2022/05/04 04:35:36;;;;;;;36.88;23.50;;;;;;;11.65;100.00;99195.00;4921854;29;20028;-84
2022/05/04 04:38:01;;;;;;;36.83;21.67;;;;;;;11.52;100.00;99187.91;4922429;29;20044;-83
2022/05/04 04:40:27;;;;;;;38.42;23.55;;;;;;;11.48;100.00;99195.34;4923353;29;20356;-83
2022/05/04 04:42:53;;;;;;;38.08;23.65;;;;;;;11.72;100.00;99190.56;4922861;29;20031;-83
2022/05/04 04:45:19;;;;;;;38.08;23.52;;;;;;;11.64;100.00;99185.50;4920943;29;20067;-83
2022/05/04 04:47:46;;;;;;;35.67;23.80;;;;;;;11.60;100.00;99179.03;4909221;29;20036;-83
2022/05/04 04:50:11;;;;;;;36.50;22.50;;;;;;;11.42;100.00;99194.31;4923130;29;20040;-83
2022/05/04 04:52:37;;;;;;;31.75;20.42;;;;;;;11.53;100.00;99194.78;4927185;29;20094;-84
2022/05/04 04:55:04;;;;;;;27.65;19.15;;;;;;;11.86;100.00;99184.34;4925462;29;20406;-83
2022/05/04 04:57:30;;;;;;;28.65;18.77;;;;;;;11.81;100.00;99184.16;4924508;29;20040;-83
2022/05/04 04:59:55;;;;;;;24.88;16.20;;;;;;;12.00;100.00;99189.66;4924592;29;20042;-84
2022/05/04 05:02:22;;;;;;;28.70;17.80;;;;;;;12.02;100.00;99192.91;4922029;29;20035;-83
2022/05/04 05:04:47;;;;;;;28.13;18.15;;;;;;;12.03;100.00;99191.91;4906146;29;20032;-83
2022/05/04 05:07:13;;;;;;;35.67;23.70;;;;;;;11.86;100.00;99194.88;4907653;29;20102;-84
2022/05/04 05:09:38;;;;;;;37.35;24.13;;;;;;;11.80;100.00;99206.19;4906229;29;20390;-85
2022/05/04 05:12:05;;;;;;;40.95;25.70;;;;;;;11.93;100.00;99194.06;4924443;29;20024;-85
2022/05/04 05:17:14;;;;;;;31.25;22.05;;;;;;;12.09;100.00;99192.94;4924117;29;20032;-85
2022/05/04 05:19:39;;;;;;;37.08;23.10;;;;;;;11.95;100.00;99194.66;4919112;29;20054;-84
2022/05/04 05:22:05;;;;;;;35.45;21.85;;;;;;;12.10;100.00;99194.53;4924265;29;20028;-84
2022/05/04 05:24:32;;;;;;;30.67;19.90;;;;;;;12.05;100.00;99195.13;4925680;29;20032;-85
2022/05/04 05:26:57;;;;;;;28.05;18.02;;;;;;;12.07;100.00;99195.75;4932239;29;20059;-83
2022/05/04 05:29:23;;;;;;;26.67;17.60;;;;;;;12.02;100.00;99195.53;4920900;29;20028;-85
2022/05/04 05:31:48;;;;;;;26.33;16.40;;;;;;;12.11;100.00;99201.44;4920877;29;20059;-85
2022/05/04 05:34:14;;;;;;;22.90;15.32;;;;;;;12.19;100.00;99195.16;4924627;29;20047;-84
2022/05/04 05:36:40;;;;;;;22.88;15.05;;;;;;;12.19;100.00;99195.97;4923763;29;20388;-84
2022/05/04 05:39:05;;;;;;;23.17;15.05;;;;;;;12.26;100.00;99193.34;4925759;29;20024;-86
2022/05/04 05:41:32;;;;;;;19.33;13.98;;;;;;;12.31;100.00;99192.75;4922483;29;20032;-85
2022/05/04 05:43:57;;;;;;;21.33;13.63;;;;;;;12.12;100.00;99203.03;4921555;29;20032;-85
2022/05/04 05:46:23;;;;;;;22.55;14.05;;;;;;;12.32;100.00;99200.41;4923207;29;20028;-87
2022/05/04 05:48:48;;;;;;;21.30;15.57;;;;;;;12.39;100.00;99203.88;4923131;29;20048;-86
2022/05/04 05:51:14;;;;;;;19.92;13.55;;;;;;;12.42;100.00;99202.66;4925212;29;20046;-87
2022/05/04 05:53:40;;;;;;;20.42;14.45;;;;;;;12.43;100.00;99199.00;4905502;29;20110;-86
2022/05/04 05:56:06;;;;;;;20.83;14.52;;;;;;;12.52;100.00;99204.88;4923190;29;20036;-86
2022/05/04 05:58:32;;;;;;;20.17;13.63;;;;;;;12.43;100.00;99199.00;4922514;29;20055;-88
2022/05/04 06:00:58;;;;;;;18.95;14.52;;;;;;;12.43;100.00;99202.47;4907030;29;20043;-86
2022/05/04 06:03:24;;;;;;;18.25;12.57;;;;;;;12.46;100.00;99217.03;4922269;29;20486;-87
2022/05/04 06:05:50;;;;;;;16.88;12.52;;;;;;;12.40;100.00;99205.50;4924457;29;20486;-87
2022/05/04 06:08:15;;;;;;;19.48;14.05;;;;;;;12.45;100.00;99207.50;4922328;29;20064;-87
2022/05/04 06:10:41;;;;;;;20.65;14.40;;;;;;;12.51;100.00;99213.78;4928971;29;20036;-87
2022/05/04 06:13:07;;;;;;;19.55;14.88;;;;;;;12.54;100.00;99216.00;4923661;29;20091;-87
2022/05/04 06:15:33;;;;;;;23.17;16.05;;;;;;;12.39;100.00;99205.69;4926598;29;20039;-90
2022/05/04 06:17:59;;;;;;;24.77;17.10;;;;;;;12.37;100.00;99208.50;4924332;29;20443;-87
2022/05/04 06:20:31;;;;;;;21.73;15.88;;;;;;;12.47;100.00;99194.94;4905737;29;20032;-87
2022/05/04 06:22:56;;;;;;;22.23;16.02;;;;;;;12.48;100.00;99201.03;4927100;29;20047;-85
2022/05/04 06:25:22;;;;;;;24.25;15.73;;;;;;;12.54;100.00;99200.22;4910680;29;20443;-83
2022/05/04 06:27:48;;;;;;;21.10;15.07;;;;;;;12.66;100.00;99193.31;4927976;29;20043;-83
2022/05/04 06:35:58;;;;;;;27.95;17.85;;;;;;;12.92;100.00;99191.66;4904273;29;20115;-84
2022/05/04 06:38:24;;;;;;;23.40;15.43;;;;;;;13.04;100.00;99183.13;4931631;29;20096;-85
2022/05/04 06:40:50;;;;;;;23.23;15.40;;;;;;;13.05;100.00;99179.47;4929085;29;20039;-85
2022/05/04 06:43:15;;;;;;;21.60;15.32;;;;;;;13.18;100.00;99178.63;4934607;29;20028;-85
2022/05/04 06:45:50;;;;;;;19.38;13.63;;;;;;;13.28;100.00;99179.81;4925755;29;20028;-87
2022/05/04 06:48:15;;;;;;;23.05;14.90;;;;;;;13.33;100.00;99173.09;4920517;29;20509;-86
2022/05/04 06:50:41;;;;;;;24.15;15.55;;;;;;;13.46;100.00;99177.53;4925691;29;20028;-87
2022/05/04 06:53:07;;;;;;;23.92;14.35;;;;;;;13.72;100.00;99176.59;4923865;29;20035;-83
2022/05/04 06:55:32;;;;;;;20.58;14.23;;;;;;;13.79;100.00;99166.81;4928833;29;20118;-84
2022/05/04 06:57:58;;;;;;;19.35;13.38;;;;;;;14.12;100.00;99178.16;4910082;29;20059;-84
2022/05/04 07:00:23;;;;;;;19.77;13.95;;;;;;;14.45;100.00;99182.38;4921808;29;20488;-81
2022/05/04 07:02:49;;;;;;;19.33;14.05;;;;;;;14.69;100.00;99170.16;4921417;29;20043;-83
2022/05/04 07:05:15;;;;;;;14.18;10.93;;;;;;;14.59;100.00;99177.78;4924710;29;20513;-82
2022/05/04 07:07:41;;;;;;;12.07;9.60;;;;;;;14.58;100.00;99176.19;4923622;29;20087;-82
2022/05/04 07:10:08;;;;;;;11.57;8.52;;;;;;;14.47;100.00;99168.94;4920420;29;20040;-81
2022/05/04 07:12:33;;;;;;;12.27;8.85;;;;;;;14.34;100.00;99173.31;4925043;29;20032;-81
2022/05/04 07:15:03;;;;;;;10.85;8.23;;;;;;;14.37;100.00;99170.25;4925856;29;20040;-82
2022/05/04 07:17:28;;;;;;;13.77;9.20;;;;;;;14.36;100.00;99173.09;4928430;29;20045;-81
2022/05/04 07:19:54;;;;;;;10.43;8.38;;;;;;;14.49;100.00;99172.19;4918711;29;20024;-81
2022/05/04 07:22:22;;;;;;;10.10;8.38;;;;;;;15.02;100.00;99170.06;4924767;29;20068;-81
2022/05/04 07:24:50;;;;;;;11.32;8.10;;;;;;;14.94;100.00;99166.72;4905128;29;20068;-81
2022/05/04 07:27:16;;;;;;;9.52;7.93;;;;;;;15.21;100.00;99174.34;4926244;29;20090;-82
2022/05/04 07:29:44;;;;;;;10.98;8.70;;;;;;;15.06;100.00;99164.13;4923926;29;20036;-82
2022/05/04 07:32:10;;;;;;;13.05;8.95;;;;;;;15.39;100.00;99178.00;4927549;29;20597;-84
2022/05/04 07:34:40;;;;;;;9.40;7.90;;;;;;;15.60;100.00;99162.66;4922767;29;20516;-87
2022/05/04 07:37:06;;;;;;;11.70;9.45;;;;;;;15.48;100.00;99167.91;4906683;29;20024;-85
2022/05/04 07:42:21;;;;;;;12.50;9.25;;;;;;;15.08;100.00;99177.13;4925339;29;20039;-87
2022/05/04 07:44:59;;;;;;;14.20;9.75;;;;;;;14.85;100.00;99170.66;4925897;29;20084;-88
2022/05/04 07:47:26;;;;;;;12.02;9.10;;;;;;;14.67;100.00;99158.22;4925711;29;20525;-86
2022/05/04 07:49:52;;;;;;;11.82;9.40;;;;;;;14.55;100.00;99177.41;4923421;29;20055;-86
2022/05/04 07:52:18;;;;;;;12.57;9.23;;;;;;;14.66;100.00;99167.97;4925479;29;20036;-87
2022/05/04 07:54:43;;;;;;;10.52;8.48;;;;;;;14.90;100.00;99168.16;4924783;29;20032;-87
2022/05/04 07:57:09;;;;;;;13.50;10.15;;;;;;;14.62;100.00;99169.44;4920774;29;20471;-86
2022/05/04 07:59:34;;;;;;;11.35;9.13;;;;;;;14.79;100.00;99177.63;4926803;29;20494;-88
2022/05/04 08:04:45;;;;;;;17.10;9.48;;;;;;;14.27;100.00;99176.03;4924162;29;20032;-86
2022/05/04 08:07:10;;;;;;;12.88;10.05;;;;;;;14.37;100.00;99174.72;4907875;29;20126;-87
2022/05/04 08:09:36;;;;;;;12.23;10.38;;;;;;;14.63;100.00;99178.16;4920847;29;20032;-88
2022/05/04 08:12:08;;;;;;;13.18;10.30;;;;;;;15.04;100.00;99181.25;4923142;29;20524;-86
2022/05/04 08:14:34;;;;;;;13.18;10.38;;;;;;;14.93;100.00;99170.34;4924932;29;20373;-88
2022/05/04 08:17:01;;;;;;;13.02;9.85;;;;;;;14.97;100.00;99182.13;4924716;29;20439;-86
2022/05/04 08:19:27;;;;;;;11.68;9.18;;;;;;;15.02;100.00;99178.00;4921406;29;20034;-88
2022/05/04 08:21:54;;;;;;;14.52;10.20;;;;;;;15.35;100.00;99171.53;4924396;29;20042;-86
2022/05/04 08:24:20;;;;;;;10.95;8.73;;;;;;;15.66;100.00;99170.50;4929303;29;20035;-86
2022/05/04 08:26:46;;;;;;;10.60;9.23;;;;;;;15.13;100.00;99159.56;4924215;29;20447;-88
2022/05/04 08:29:12;;;;;;;12.43;8.43;;;;;;;15.78;100.00;99162.59;4920084;29;20030;-89
2022/05/04 08:31:40;;;;;;;10.75;9.27;;;;;;;15.93;100.00;99153.47;4925806;29;20043;-89
2022/05/04 08:34:07;;;;;;;10.88;8.50;;;;;;;15.58;100.00;99147.00;4921859;29;20070;-87
2022/05/04 08:36:33;;;;;;;12.05;9.27;;;;;;;15.19;100.00;99160.53;4924608;29;20042;-86
2022/05/04 08:38:58;;;;;;;12.65;8.75;;;;;;;15.19;100.00;99144.66;4923388;29;20394;-87
2022/05/04 08:41:26;;;;;;;12.80;8.88;;;;;;;15.55;100.00;99148.28;4927549;29;20036;-86
2022/05/04 08:43:52;;;;;;;11.02;8.65;;;;;;;15.66;100.00;99143.22;4923928;29;20554;-86
2022/05/04 08:46:21;;;;;;;9.93;7.97;;;;;;;15.03;100.00;99155.81;4916252;29;20047;-88
2022/05/04 08:48:48;;;;;;;9.98;8.52;;;;;;;14.57;100.00;99142.88;4927203;29;20083;-85
2022/05/04 08:51:18;;;;;;;9.68;8.35;;;;;;;14.36;100.00;99136.97;4919368;29;20085;-87
2022/05/04 08:53:49;;;;;;;9.05;8.13;;;;;;;14.60;100.00;99137.13;4903020;29;20056;-86
2022/05/04 08:56:17;;;;;;;10.95;8.50;;;;;;;14.65;100.00;99124.06;4921472;29;20035;-87
2022/05/04 08:58:43;;;;;;;11.57;8.02;;;;;;;14.62;100.00;99150.94;4924623;29;20485;-86
2022/05/04 09:01:09;;;;;;;12.55;8.88;;;;;;;14.83;100.00;99148.94;4921442;29;20452;-85
2022/05/04 09:03:35;;;;;;;11.40;8.85;;;;;;;14.76;100.00;99146.34;4919289;29;20114;-87
2022/05/04 09:06:01;;;;;;;10.13;8.55;;;;;;;14.52;100.00;99151.44;4918598;29;20099;-87
2022/05/04 09:08:26;;;;;;;11.45;8.40;;;;;;;14.52;100.00;99151.44;4917573;29;20032;-88
2022/05/04 09:10:52;;;;;;;9.63;8.30;;;;;;;15.12;100.00;99159.78;4919858;29;20040;-89
2022/05/04 09:13:18;;;;;;;9.20;8.30;;;;;;;15.05;100.00;99159.06;4921559;29;20296;-89
2022/05/04 09:15:44;;;;;;;8.93;7.57;;;;;;;15.70;100.00;99157.63;4918739;29;20394;-87
2022/05/04 09:18:13;;;;;;;9.20;8.13;;;;;;;16.06;100.00;99163.84;4922807;29;20032;-87
2022/05/04 09:20:58;;;;;;;10.90;7.45;;;;;;;15.73;100.00;99161.66;4920610;29;20070;-86
2022/05/04 09:23:28;;;;;;;9.05;7.63;;;;;;;16.19;100.00;99156.75;4920817;29;20043;-88
2022/05/04 09:26:01;;;;;;;8.98;7.70;;;;;;;15.98;100.00;99170.28;4901001;29;20066;-86
2022/05/04 09:28:29;;;;;;;9.10;7.53;;;;;;;16.78;100.00;99158.59;4921382;29;20031;-86
2022/05/04 09:31:14;;;;;;;8.70;6.65;;;;;;;16.68;100.00;99165.25;4924496;29;20127;-87
2022/05/04 09:33:40;;;;;;;9.02;6.53;;;;;;;17.17;100.00;99156.25;4924581;29;20039;-85
2022/05/04 09:36:06;;;;;;;7.13;6.43;;;;;;;16.08;100.00;99161.78;4923641;29;20028;-90
2022/05/04 09:46:53;;;;;;;5.95;5.22;;;;;;;17.94;100.00;99161.34;4928981;29;20032;-86
2022/05/04 09:49:21;;;;;;;5.85;5.25;;;;;;;17.16;100.00;99159.94;4925356;29;20052;-87
2022/05/04 09:51:51;;;;;;;4.35;3.95;;;;;;;16.55;100.00;99162.88;4928221;29;20043;-87
2022/05/04 09:54:25;;;;;;;5.65;3.63;;;;;;;17.11;100.00;99157.97;4926439;29;20508;-87
2022/05/04 09:56:56;;;;;;;3.28;3.03;;;;;;;16.98;100.00;99163.50;4924921;29;20386;-88
2022/05/04 09:59:25;;;;;;;3.00;2.70;;;;;;;16.99;100.00;99171.25;4909806;29;20044;-87
2022/05/04 10:01:51;;;;;;;3.83;3.10;;;;;;;17.17;100.00;99169.50;4921988;29;20035;-90
2022/05/04 10:04:20;;;;;;;2.97;2.67;;;;;;;16.60;100.00;99170.09;4927638;29;20032;-87
2022/05/04 10:06:48;;;;;;;3.17;2.70;;;;;;;16.97;100.00;99172.50;4930133;29;20508;-89
2022/05/04 10:09:14;;;;;;;3.30;2.83;;;;;;;16.82;100.00;99165.84;4906977;29;20032;-89
2022/05/04 10:11:39;;;;;;;3.40;3.10;;;;;;;16.93;100.00;99164.22;4928947;29;20032;-87
2022/05/04 10:14:10;;;;;;;3.08;2.88;;;;;;;17.59;100.00;99162.31;4925243;29;20028;-89
2022/05/04 10:16:54;;;;;;;3.20;2.90;;;;;;;17.33;100.00;99154.69;4927806;29;20370;-87
2022/05/04 10:19:29;;;;;;;5.65;4.10;;;;;;;17.26;100.00;99165.41;4928473;29;20039;-89
2022/05/04 10:21:58;;;;;;;3.80;3.50;;;;;;;16.93;100.00;99164.22;4929198;29;20394;-89
2022/05/04 10:24:35;;;;;;;4.03;3.63;;;;;;;17.50;100.00;99169.84;4927135;29;20032;-88
2022/05/04 10:27:25;;;;;;;5.22;4.32;;;;;;;16.92;100.00;99159.97;4925479;29;20558;-89
2022/05/04 10:33:05;;;;;;;4.25;3.13;;;;;;;17.78;100.00;99155.75;4935271;28;20048;-88
2022/05/04 10:35:44;;;;;;;2.30;2.10;;;;;;;18.69;100.00;99155.84;4924322;29;20499;-89
2022/05/04 10:38:13;;;;;;;2.50;2.30;;;;;;;19.05;100.00;99160.84;4913054;29;20091;-90
2022/05/04 10:40:54;;;;;;;3.17;2.40;;;;;;;18.29;100.00;99165.66;4911578;29;20135;-91
2022/05/04 10:43:47;;;;;;;2.20;2.10;;;;;;;19.25;100.00;99161.06;4919114;29;20059;-88
2022/05/04 10:46:20;;;;;;;2.22;1.90;;;;;;;17.78;100.00;99161.06;4924962;29;20063;-82
2022/05/04 10:49:04;;;;;;;2.50;2.30;;;;;;;18.34;100.00;99154.28;4920995;29;20509;-82
2022/05/04 10:51:38;;;;;;;2.50;2.30;;;;;;;17.88;100.00;99163.09;4922451;29;20099;-82
2022/05/04 10:54:09;;;;;;;2.83;2.63;;;;;;;17.75;100.00;99158.91;4927194;29;20038;-81
2022/05/04 10:56:45;;;;;;;2.65;2.20;;;;;;;17.39;100.00;99166.19;4924689;29;20031;-82
2022/05/04 10:59:22;;;;;;;2.40;2.20;;;;;;;16.44;100.00;99175.09;4922568;29;20059;-82
2022/05/04 11:01:54;;;;;;;2.70;2.50;;;;;;;16.45;100.00;99168.75;4921140;29;20032;-81
2022/05/04 11:04:24;;;;;;;2.60;2.40;;;;;;;16.63;100.00;99165.16;4925171;29;20059;-82
2022/05/04 11:06:55;;;;;;;3.00;2.80;;;;;;;17.09;100.00;99160.06;4917617;29;20474;-82
2022/05/04 11:09:29;;;;;;;3.20;3.00;;;;;;;16.87;100.00;99167.78;4919662;29;20486;-82
2022/05/04 11:12:03;;;;;;;3.53;3.22;;;;;;;17.31;100.00;99166.59;4921375;29;20386;-81
2022/05/04 11:14:29;;;;;;;3.58;3.28;;;;;;;18.00;100.00;99165.69;4920168;29;20367;-82
2022/05/04 11:16:57;;;;;;;3.70;3.40;;;;;;;17.96;100.00;99151.28;4923503;29;20028;-85
2022/05/04 11:19:28;;;;;;;3.65;3.20;;;;;;;18.02;100.00;99157.50;4906242;29;20039;-83
2022/05/04 11:21:55;;;;;;;3.50;3.20;;;;;;;18.22;100.00;99151.72;4928233;29;20046;-83
2022/05/04 11:24:21;;;;;;;2.88;2.53;;;;;;;18.21;100.00;99155.41;4923407;29;20055;-81
2022/05/04 11:26:50;;;;;;;3.13;2.55;;;;;;;18.17;100.00;99156.94;4929368;29;20032;-82
2022/05/04 11:29:18;;;;;;;2.50;2.30;;;;;;;17.46;100.00;99156.25;4927517;29;20506;-80
2022/05/04 11:31:47;;;;;;;2.13;2.03;;;;;;;16.81;100.00;99163.41;4925549;29;20032;-80
2022/05/04 11:34:17;;;;;;;3.03;2.72;;;;;;;16.89;100.00;99155.09;4925885;29;20038;-80
2022/05/04 11:36:45;;;;;;;3.13;2.83;;;;;;;16.74;100.00;99157.44;4928019;29;20023;-81
2022/05/04 11:39:17;;;;;;;3.65;3.03;;;;;;;16.51;100.00;99159.06;4922242;29;20386;-81
2022/05/04 11:41:47;;;;;;;2.90;2.70;;;;;;;16.15;100.00;99161.69;4923736;29;20031;-82
2022/05/04 11:44:14;;;;;;;2.88;2.60;;;;;;;16.94;100.00;99159.72;4921064;29;20066;-82
2022/05/04 11:46:43;;;;;;;2.92;2.63;;;;;;;17.63;100.00;99147.53;4927592;29;20038;-81